Time;durP1;ratioP1;P1;durP2;ratioP2;P2;SDS_P1;SDS_P2;PMS_P1;PMS_P2;Temp;Humidity;BMP_temperature;BMP_pressure;BME280_temperature;BME280_humidity;BME280_pressure;Samples;Min_cycle;Max_cycle;Signal;HPM_P1;HPM_P2
2022/11/26 00:01:40;;;;;;;23.63;4.00;;;7.80;99.90;;;;;;5026288;28;20480;-69
2022/11/26 00:04:06;;;;;;;24.33;5.00;;;7.80;99.90;;;;;;5030512;28;20052;-68
2022/11/26 00:06:40;;;;;;;21.85;4.03;;;8.20;99.90;;;;;;5026986;28;20052;-70
2022/11/26 00:09:13;;;;;;;24.83;3.97;;;8.20;99.90;;;;;;5028920;28;20041;-69
2022/11/26 00:11:39;;;;;;;22.92;4.00;;;8.00;99.90;;;;;;5027875;28;20511;-69
2022/11/26 00:14:13;;;;;;;16.33;3.70;;;8.20;99.90;;;;;;5030829;28;20124;-69
2022/11/26 00:16:39;;;;;;;25.00;4.40;;;8.20;99.90;;;;;;5031048;28;20073;-69
2022/11/26 00:19:04;;;;;;;24.65;4.32;;;8.30;99.90;;;;;;5031078;28;20447;-69
2022/11/26 00:21:33;;;;;;;22.08;4.20;;;8.40;99.90;;;;;;5035742;28;20033;-70
2022/11/26 00:24:01;;;;;;;28.60;4.13;;;8.20;99.90;;;;;;5034522;28;20034;-70
2022/11/26 00:26:27;;;;;;;20.35;3.47;;;8.20;99.90;;;;;;5032156;28;20511;-70
2022/11/26 00:29:00;;;;;;;16.55;3.75;;;8.40;99.90;;;;;;5028621;28;20080;-70
2022/11/26 00:31:27;;;;;;;26.33;3.97;;;8.30;99.90;;;;;;5035443;28;20407;-70
2022/11/26 00:33:53;;;;;;;21.55;4.18;;;8.50;99.90;;;;;;5021634;28;20038;-69
2022/11/26 00:36:26;;;;;;;25.40;5.13;;;8.60;99.90;;;;;;5034276;28;20495;-70
2022/11/26 00:39:05;;;;;;;26.13;4.30;;;8.40;99.90;;;;;;5021152;28;20033;-70
2022/11/26 00:41:34;;;;;;;22.00;3.45;;;8.30;99.90;;;;;;5032044;28;20034;-70
2022/11/26 00:43:59;;;;;;;19.83;3.53;;;8.20;99.90;;;;;;5034080;28;20491;-70
2022/11/26 00:46:25;;;;;;;22.17;3.92;;;7.80;99.90;;;;;;5035534;28;20045;-70
2022/11/26 00:48:50;;;;;;;27.80;3.97;;;7.70;99.90;;;;;;5033121;28;20167;-69
2022/11/26 00:51:26;;;;;;;25.42;3.97;;;7.60;99.90;;;;;;5033724;28;20041;-68
2022/11/26 00:53:59;;;;;;;15.75;3.20;;;7.70;99.90;;;;;;5035270;28;20511;-69
2022/11/26 00:56:25;;;;;;;22.92;3.55;;;7.50;99.90;;;;;;5032367;28;20195;-69
2022/11/26 00:58:50;;;;;;;21.30;4.07;;;7.50;99.90;;;;;;5023879;28;20112;-69
2022/11/26 01:01:19;;;;;;;27.38;4.35;;;7.20;99.90;;;;;;5033992;28;20084;-68
2022/11/26 01:03:45;;;;;;;26.10;4.10;;;7.40;99.90;;;;;;5022579;28;20026;-69
2022/11/26 01:06:18;;;;;;;36.13;4.70;;;7.20;99.90;;;;;;5033717;28;20048;-69
2022/11/26 01:08:44;;;;;;;24.98;4.25;;;7.50;99.90;;;;;;5023544;28;20088;-69
2022/11/26 01:11:14;;;;;;;19.70;3.97;;;7.60;99.90;;;;;;5032145;28;20548;-69
2022/11/26 01:13:41;;;;;;;24.58;4.65;;;7.60;99.90;;;;;;5035085;28;20056;-69
2022/11/26 01:16:26;;;;;;;24.75;4.30;;;7.70;99.90;;;;;;5033648;28;20090;-70
2022/11/26 01:18:54;;;;;;;22.77;4.72;;;7.80;99.90;;;;;;5033975;28;20160;-70
2022/11/26 01:21:21;;;;;;;28.40;4.93;;;7.70;99.90;;;;;;5034369;28;20551;-69
2022/11/26 01:23:46;;;;;;;17.85;3.97;;;7.60;99.90;;;;;;5032404;28;20098;-69
2022/11/26 01:26:21;;;;;;;26.23;4.35;;;7.40;99.90;;;;;;5033663;28;20033;-69
2022/11/26 01:28:47;;;;;;;18.73;4.05;;;7.40;99.90;;;;;;5024993;28;20553;-69
2022/11/26 01:31:18;;;;;;;26.45;5.97;;;7.40;99.90;;;;;;5033364;28;20044;-69
2022/11/26 01:33:47;;;;;;;24.65;4.30;;;7.40;99.90;;;;;;5032499;28;20480;-69
2022/11/26 01:36:32;;;;;;;23.45;5.07;;;7.20;99.90;;;;;;5029256;28;20050;-69
2022/11/26 01:39:14;;;;;;;23.73;4.88;;;7.30;99.90;;;;;;5029859;28;20048;-69
2022/11/26 01:41:47;;;;;;;26.48;4.28;;;7.40;99.90;;;;;;5014693;28;20038;-69
2022/11/26 01:44:23;;;;;;;21.20;4.05;;;7.40;99.90;;;;;;5024724;28;20445;-69
2022/11/26 01:46:49;;;;;;;15.75;4.20;;;7.40;99.90;;;;;;5031735;28;20049;-69
2022/11/26 01:49:18;;;;;;;23.52;4.22;;;7.30;99.90;;;;;;5034288;28;20526;-68
2022/11/26 01:51:45;;;;;;;23.70;4.57;;;7.20;99.90;;;;;;5032803;28;20033;-69
2022/11/26 01:54:10;;;;;;;24.63;4.20;;;7.20;99.90;;;;;;5032638;28;20087;-69
2022/11/26 01:56:40;;;;;;;28.48;4.38;;;7.20;99.90;;;;;;5027390;28;20038;-70
2022/11/26 01:59:15;;;;;;;20.02;4.05;;;7.20;99.90;;;;;;5012962;28;20047;-69
2022/11/26 02:01:41;;;;;;;22.17;4.63;;;7.40;99.90;;;;;;5025635;28;20391;-69
2022/11/26 02:04:17;;;;;;;25.38;4.60;;;7.10;99.90;;;;;;5033837;28;20045;-69
2022/11/26 02:06:47;;;;;;;23.08;4.88;;;7.10;99.90;;;;;;5031950;28;20569;-70
2022/11/26 02:09:14;;;;;;;25.45;4.25;;;7.10;99.90;;;;;;5029798;28;20091;-69
2022/11/26 02:11:40;;;;;;;19.38;4.22;;;7.30;99.90;;;;;;5032074;28;20058;-69
2022/11/26 02:14:11;;;;;;;22.80;4.68;;;7.20;99.90;;;;;;5032452;28;20411;-69
2022/11/26 02:17:04;;;;;;;24.35;5.50;;;7.00;99.90;;;;;;5031810;28;20042;-69
2022/11/26 02:20:09;;;;;;;21.42;4.78;;;7.00;99.90;;;;;;5032763;28;20041;-70
2022/11/26 02:23:12;;;;;;;24.15;4.65;;;7.00;99.90;;;;;;5033574;28;20518;-69
2022/11/26 02:25:58;;;;;;;30.23;5.18;;;7.00;99.90;;;;;;5013864;28;20064;-69
2022/11/26 02:28:52;;;;;;;20.83;4.72;;;6.70;99.90;;;;;;5028546;28;20048;-69
2022/11/26 02:31:40;;;;;;;16.33;4.90;;;6.60;99.90;;;;;;5024698;28;20249;-69
2022/11/26 02:34:25;;;;;;;20.88;5.28;;;6.60;99.90;;;;;;5013761;28;20083;-69
2022/11/26 02:37:04;;;;;;;26.80;5.30;;;6.60;99.90;;;;;;5019919;28;20042;-69
2022/11/26 02:39:30;;;;;;;19.73;5.00;;;6.70;99.90;;;;;;5032397;28;20087;-70
2022/11/26 02:42:01;;;;;;;24.08;5.47;;;7.30;99.90;;;;;;5032838;28;20419;-69
2022/11/26 02:44:37;;;;;;;22.67;5.13;;;6.90;99.90;;;;;;5025315;28;20049;-69
2022/11/26 02:47:09;;;;;;;26.25;4.85;;;7.30;99.90;;;;;;5032177;28;20038;-69
2022/11/26 02:49:38;;;;;;;26.95;5.82;;;7.10;99.90;;;;;;5033434;28;20041;-69
2022/11/26 02:52:05;;;;;;;23.00;4.65;;;7.20;99.90;;;;;;5048262;28;20061;-69
2022/11/26 02:54:33;;;;;;;26.83;5.25;;;7.40;99.90;;;;;;5031437;28;20041;-69
2022/11/26 02:57:02;;;;;;;25.13;5.72;;;7.40;99.90;;;;;;5030243;28;20041;-68
2022/11/26 02:59:29;;;;;;;24.27;5.13;;;7.30;99.90;;;;;;5032964;28;20111;-69
2022/11/26 03:02:20;;;;;;;34.50;5.85;;;7.40;99.90;;;;;;5032464;28;20080;-69
2022/11/26 03:04:50;;;;;;;23.42;5.00;;;7.60;99.90;;;;;;5030663;28;20410;-68
2022/11/26 03:07:17;;;;;;;23.20;5.40;;;7.20;99.90;;;;;;5031806;28;20112;-69
2022/11/26 03:09:56;;;;;;;29.20;5.82;;;7.60;99.90;;;;;;5031770;28;20063;-69
2022/11/26 03:12:21;;;;;;;22.13;5.47;;;7.60;99.90;;;;;;5032433;28;20140;-69
2022/11/26 03:14:47;;;;;;;23.55;5.03;;;7.20;99.90;;;;;;5032930;28;20138;-68
2022/11/26 03:17:13;;;;;;;22.35;5.18;;;7.20;99.90;;;;;;5031555;28;20041;-69
2022/11/26 03:19:39;;;;;;;30.02;5.65;;;7.40;99.90;;;;;;5032058;28;20025;-69
2022/11/26 03:22:05;;;;;;;23.42;5.15;;;7.20;99.90;;;;;;5031183;28;20099;-68
2022/11/26 03:24:31;;;;;;;34.72;5.65;;;7.50;99.90;;;;;;5045567;28;20033;-68
2022/11/26 03:26:57;;;;;;;29.63;5.13;;;7.60;99.90;;;;;;5030006;28;20091;-69
2022/11/26 03:29:23;;;;;;;29.00;5.95;;;7.60;99.90;;;;;;5027498;28;20029;-69
2022/11/26 03:31:48;;;;;;;26.83;5.40;;;7.60;99.90;;;;;;5022396;28;20113;-69
2022/11/26 03:34:14;;;;;;;27.95;5.60;;;7.20;99.90;;;;;;5031000;28;20048;-69
2022/11/26 03:36:39;;;;;;;33.60;5.93;;;7.10;99.90;;;;;;5030632;28;20403;-69
2022/11/26 03:39:05;;;;;;;28.70;5.70;;;7.30;99.90;;;;;;5031888;28;20072;-69
2022/11/26 03:41:31;;;;;;;30.73;5.60;;;7.10;99.90;;;;;;5031753;28;20040;-69
2022/11/26 03:43:56;;;;;;;29.90;5.47;;;7.30;99.90;;;;;;5029136;28;20052;-69
2022/11/26 03:46:22;;;;;;;30.58;6.03;;;7.40;99.90;;;;;;5032152;28;20433;-69
2022/11/26 03:48:47;;;;;;;26.48;5.35;;;7.00;99.90;;;;;;5031860;28;20053;-69
2022/11/26 03:51:13;;;;;;;31.73;6.20;;;7.40;99.90;;;;;;5017717;28;20060;-68
2022/11/26 03:53:38;;;;;;;25.45;6.03;;;7.10;99.90;;;;;;5029999;28;20518;-68
2022/11/26 03:56:04;;;;;;;25.58;5.47;;;7.10;99.90;;;;;;5046945;28;20049;-69
2022/11/26 03:58:29;;;;;;;27.17;5.85;;;7.40;99.90;;;;;;5010424;28;20049;-69
2022/11/26 04:00:55;;;;;;;27.50;5.47;;;7.00;99.90;;;;;;5030711;28;20029;-69
2022/11/26 04:03:21;;;;;;;27.20;5.40;;;7.00;99.90;;;;;;5020082;28;20091;-68
2022/11/26 04:05:47;;;;;;;31.25;5.78;;;7.00;99.90;;;;;;5028320;28;20038;-69
2022/11/26 04:08:12;;;;;;;32.58;5.93;;;7.00;99.90;;;;;;5031916;28;20037;-69
2022/11/26 04:10:38;;;;;;;25.55;5.65;;;7.20;99.90;;;;;;5010230;28;20034;-69
2022/11/26 04:13:04;;;;;;;32.83;5.85;;;7.50;99.90;;;;;;5031409;28;20132;-69
2022/11/26 04:15:30;;;;;;;26.88;5.68;;;7.20;99.90;;;;;;5030018;28;20118;-69
2022/11/26 04:17:55;;;;;;;28.60;5.55;;;7.80;99.90;;;;;;5031106;28;20076;-69
2022/11/26 04:20:21;;;;;;;29.83;6.00;;;7.60;99.90;;;;;;5031309;28;20487;-69
2022/11/26 04:22:46;;;;;;;43.03;6.35;;;7.50;99.90;;;;;;5028899;28;20087;-68
2022/11/26 04:25:12;;;;;;;26.85;6.18;;;7.50;99.90;;;;;;5012031;28;20042;-69
2022/11/26 04:27:38;;;;;;;36.95;7.00;;;8.00;99.90;;;;;;5028046;28;20048;-69
2022/11/26 04:30:05;;;;;;;35.45;6.50;;;7.90;99.90;;;;;;5029962;28;20135;-69
2022/11/26 04:32:31;;;;;;;36.75;6.90;;;8.40;99.90;;;;;;5013944;28;20072;-69
2022/11/26 04:34:56;;;;;;;33.22;6.55;;;8.40;99.90;;;;;;5030403;28;20077;-69
2022/11/26 04:37:22;;;;;;;41.20;7.38;;;8.60;99.90;;;;;;5031392;28;20041;-69
2022/11/26 04:39:48;;;;;;;48.45;7.75;;;8.60;99.90;;;;;;5031186;28;20388;-69
2022/11/26 04:42:13;;;;;;;32.20;6.75;;;8.20;99.90;;;;;;5030002;28;20518;-68
2022/11/26 04:44:39;;;;;;;39.63;6.78;;;8.20;99.90;;;;;;5044141;28;20064;-69
2022/11/26 04:47:04;;;;;;;45.75;7.28;;;8.20;99.90;;;;;;5029089;28;20041;-69
2022/11/26 04:49:30;;;;;;;36.92;6.72;;;8.30;99.90;;;;;;5031275;28;20284;-69
2022/11/26 04:51:55;;;;;;;33.10;6.40;;;8.50;99.90;;;;;;5030501;28;20473;-69
2022/11/26 04:54:21;;;;;;;32.88;6.28;;;8.10;99.90;;;;;;5016979;28;20373;-69
2022/11/26 04:56:46;;;;;;;31.63;6.50;;;8.10;99.90;;;;;;5020594;28;20396;-69
2022/11/26 04:59:12;;;;;;;34.20;5.55;;;8.00;99.90;;;;;;5030025;28;20037;-70
2022/11/26 05:01:37;;;;;;;34.03;6.28;;;8.40;99.90;;;;;;5028722;28;20547;-69
2022/11/26 05:04:03;;;;;;;48.13;6.93;;;8.40;99.90;;;;;;5033114;28;20476;-69
2022/11/26 05:06:29;;;;;;;26.08;5.75;;;8.50;99.90;;;;;;5034629;28;20565;-69
2022/11/26 05:08:54;;;;;;;31.42;5.47;;;8.30;99.90;;;;;;5033438;28;20049;-69
2022/11/26 05:11:20;;;;;;;36.78;6.40;;;8.80;99.90;;;;;;5033208;28;20092;-69
2022/11/26 05:13:45;;;;;;;27.77;5.88;;;9.50;99.90;;;;;;5033028;28;20050;-70
2022/11/26 05:16:11;;;;;;;32.67;5.90;;;8.70;99.90;;;;;;5033269;28;20136;-69
2022/11/26 05:18:36;;;;;;;32.30;6.20;;;9.00;99.90;;;;;;5034696;28;20038;-69
2022/11/26 05:21:04;;;;;;;32.10;5.78;;;9.00;99.90;;;;;;5034220;28;20029;-70
2022/11/26 05:23:30;;;;;;;29.40;6.13;;;8.60;99.90;;;;;;5032202;28;20533;-69
2022/11/26 05:25:55;;;;;;;34.83;5.82;;;8.80;99.90;;;;;;5033176;28;20069;-69
2022/11/26 05:28:21;;;;;;;35.35;6.22;;;8.60;99.90;;;;;;5033556;28;20045;-70
2022/11/26 05:30:46;;;;;;;23.73;5.30;;;8.50;99.90;;;;;;5033005;28;20049;-70
2022/11/26 05:33:12;;;;;;;45.88;6.90;;;8.70;99.90;;;;;;5019568;28;20049;-69
2022/11/26 05:35:38;;;;;;;32.70;5.25;;;8.50;99.90;;;;;;5032114;28;20053;-70
2022/11/26 05:38:03;;;;;;;40.58;6.18;;;8.60;99.90;;;;;;5032366;28;20041;-70
2022/11/26 05:40:29;;;;;;;27.33;6.13;;;8.40;99.90;;;;;;5031927;28;20065;-69
2022/11/26 05:42:54;;;;;;;40.95;6.40;;;8.30;99.90;;;;;;5033624;28;20116;-70
2022/11/26 05:45:20;;;;;;;31.92;5.97;;;8.40;99.90;;;;;;5032706;28;20041;-69
2022/11/26 05:47:45;;;;;;;33.80;6.18;;;8.10;99.90;;;;;;5034042;28;20053;-70
2022/11/26 05:50:11;;;;;;;30.83;6.05;;;8.10;99.90;;;;;;5033932;28;20121;-69
2022/11/26 05:52:37;;;;;;;32.90;5.82;;;8.00;99.90;;;;;;5034061;28;20388;-70
2022/11/26 05:55:03;;;;;;;27.95;5.53;;;8.20;99.90;;;;;;5030958;28;20045;-70
2022/11/26 05:57:28;;;;;;;35.58;6.18;;;8.00;99.90;;;;;;5033331;28;20052;-69
2022/11/26 05:59:54;;;;;;;31.88;6.25;;;8.30;99.90;;;;;;5032416;28;20040;-69
2022/11/26 06:02:19;;;;;;;25.08;5.70;;;7.90;99.90;;;;;;5025442;28;20042;-70
2022/11/26 06:04:45;;;;;;;30.08;4.95;;;8.20;99.90;;;;;;5010883;28;20124;-68
2022/11/26 06:07:11;;;;;;;26.58;5.18;;;8.00;99.90;;;;;;5032357;28;20045;-70
2022/11/26 06:09:36;;;;;;;32.45;5.38;;;8.00;99.90;;;;;;5031608;28;20041;-70
2022/11/26 06:12:02;;;;;;;23.27;4.88;;;8.20;99.90;;;;;;5033249;28;20053;-69
2022/11/26 06:14:27;;;;;;;18.45;4.93;;;8.30;99.90;;;;;;5029810;28;20054;-70
2022/11/26 06:16:53;;;;;;;27.08;4.25;;;7.90;99.90;;;;;;5033502;28;20034;-70
2022/11/26 06:19:19;;;;;;;23.88;4.68;;;8.00;99.90;;;;;;5031861;28;20509;-69
2022/11/26 06:21:44;;;;;;;24.20;5.00;;;8.10;99.90;;;;;;5016849;28;20495;-70
2022/11/26 06:24:10;;;;;;;23.65;4.70;;;8.40;99.90;;;;;;5020719;28;20092;-69
2022/11/26 06:26:36;;;;;;;27.15;4.85;;;8.50;99.90;;;;;;5025907;28;20041;-69
2022/11/26 06:29:02;;;;;;;26.30;5.45;;;8.10;99.90;;;;;;5025912;28;20041;-69
2022/11/26 06:31:28;;;;;;;34.53;5.63;;;8.50;99.90;;;;;;5027978;28;20054;-69
2022/11/26 06:33:54;;;;;;;42.13;5.47;;;8.30;99.90;;;;;;5024375;28;20037;-69
2022/11/26 06:36:21;;;;;;;27.17;5.38;;;8.10;99.90;;;;;;5031353;28;20407;-69
2022/11/26 06:38:46;;;;;;;23.15;4.70;;;8.00;99.90;;;;;;5032558;28;20041;-69
2022/11/26 06:41:12;;;;;;;27.23;5.55;;;8.40;99.90;;;;;;5031138;28;20029;-70
2022/11/26 06:43:37;;;;;;;28.38;6.20;;;7.90;99.90;;;;;;5031167;28;20461;-69
2022/11/26 06:46:06;;;;;;;28.75;5.13;;;8.20;99.90;;;;;;5031704;28;20095;-70
2022/11/26 06:48:33;;;;;;;32.75;5.53;;;8.10;99.90;;;;;;5029643;28;20077;-67
2022/11/26 06:51:20;;;;;;;29.02;5.57;;;8.30;99.90;;;;;;5031201;28;20045;-70
2022/11/26 06:53:49;;;;;;;21.10;4.45;;;7.90;99.90;;;;;;5022767;28;20041;-70
2022/11/26 06:56:15;;;;;;;24.48;4.95;;;7.90;99.90;;;;;;5033189;28;20421;-69
2022/11/26 06:58:41;;;;;;;28.63;5.75;;;7.90;99.90;;;;;;5031805;28;20112;-69
2022/11/26 07:01:13;;;;;;;18.73;4.55;;;8.20;99.90;;;;;;5047380;28;20129;-70
2022/11/26 07:03:39;;;;;;;21.85;5.65;;;8.00;99.90;;;;;;5032398;28;20045;-70
2022/11/26 07:06:04;;;;;;;28.38;5.10;;;8.50;99.90;;;;;;5031709;28;20404;-70
2022/11/26 07:08:30;;;;;;;19.73;4.95;;;8.50;99.90;;;;;;5012688;28;20079;-70
2022/11/26 07:11:01;;;;;;;23.63;5.30;;;8.40;99.90;;;;;;5032173;28;20041;-70
2022/11/26 07:13:26;;;;;;;24.75;5.50;;;8.40;99.90;;;;;;5030469;28;20045;-70
2022/11/26 07:15:52;;;;;;;19.73;4.32;;;7.90;99.90;;;;;;5047530;28;20564;-70
2022/11/26 07:18:20;;;;;;;26.05;4.75;;;7.90;99.90;;;;;;5031506;28;20124;-70
2022/11/26 07:20:45;;;;;;;15.70;4.05;;;7.90;99.90;;;;;;5031661;28;20338;-69
2022/11/26 07:23:11;;;;;;;31.52;6.00;;;8.30;99.90;;;;;;5030573;28;20044;-70
2022/11/26 07:25:36;;;;;;;24.05;4.63;;;8.30;99.90;;;;;;5025125;28;20030;-69
2022/11/26 07:28:02;;;;;;;25.98;4.55;;;8.30;99.90;;;;;;5020526;28;20372;-69
2022/11/26 07:30:27;;;;;;;21.58;4.40;;;7.90;99.90;;;;;;5032172;28;20116;-70
2022/11/26 07:32:53;;;;;;;37.97;5.38;;;8.40;99.90;;;;;;5015284;28;20079;-70
2022/11/26 07:35:18;;;;;;;29.15;5.00;;;8.40;99.90;;;;;;5024171;28;20088;-70
2022/11/26 07:37:44;;;;;;;38.00;5.72;;;8.40;99.90;;;;;;5030487;28;20048;-70
2022/11/26 07:40:10;;;;;;;26.38;5.47;;;8.40;99.90;;;;;;5031925;28;20601;-70
2022/11/26 07:42:35;;;;;;;24.15;4.78;;;8.20;99.90;;;;;;5030527;28;20029;-69
2022/11/26 07:45:02;;;;;;;21.45;4.93;;;8.00;99.90;;;;;;5030486;28;20089;-69
2022/11/26 07:47:28;;;;;;;30.55;5.50;;;8.50;99.90;;;;;;5030339;28;20045;-70
2022/11/26 07:49:53;;;;;;;33.45;4.97;;;8.30;99.90;;;;;;5046686;28;20445;-70
2022/11/26 07:52:19;;;;;;;29.63;5.25;;;8.20;99.90;;;;;;5022378;28;20050;-70
2022/11/26 07:54:44;;;;;;;22.80;5.10;;;8.90;99.90;;;;;;5031687;28;20479;-70
2022/11/26 07:57:10;;;;;;;18.25;4.72;;;8.80;99.90;;;;;;5024594;28;20417;-70
2022/11/26 07:59:35;;;;;;;29.10;5.57;;;8.50;99.90;;;;;;5011102;28;20042;-70
2022/11/26 08:02:01;;;;;;;23.65;4.85;;;8.80;99.90;;;;;;5025958;28;20044;-70
2022/11/26 08:04:26;;;;;;;24.10;4.70;;;9.10;99.90;;;;;;5031662;28;20152;-70
2022/11/26 08:06:52;;;;;;;23.00;5.20;;;8.70;99.90;;;;;;5030396;28;20037;-70
2022/11/26 08:09:17;;;;;;;15.90;5.20;;;9.00;99.90;;;;;;5029707;28;20443;-70
2022/11/26 08:11:43;;;;;;;27.35;5.15;;;9.30;99.90;;;;;;5026612;28;20054;-70
2022/11/26 08:14:10;;;;;;;17.58;4.45;;;8.70;99.90;;;;;;5023794;28;20088;-70
2022/11/26 08:16:36;;;;;;;29.58;5.72;;;9.00;99.90;;;;;;5046018;28;20045;-71
2022/11/26 08:19:07;;;;;;;29.60;5.78;;;9.00;99.90;;;;;;5030049;28;20077;-70
2022/11/26 08:21:33;;;;;;;28.35;8.73;;;9.00;99.90;;;;;;5027933;28;20033;-70
2022/11/26 08:23:59;;;;;;;28.13;5.03;;;9.00;99.90;;;;;;5030125;28;20046;-70
2022/11/26 08:26:25;;;;;;;25.08;5.38;;;9.60;99.90;;;;;;5024873;28;20076;-70
2022/11/26 08:28:52;;;;;;;16.30;4.85;;;9.20;99.90;;;;;;5012272;28;20049;-71
2022/11/26 08:31:18;;;;;;;19.58;5.63;;;9.20;99.90;;;;;;5030165;28;20377;-70
2022/11/26 08:33:44;;;;;;;25.05;5.80;;;9.60;99.90;;;;;;5030861;28;20488;-70
2022/11/26 08:36:10;;;;;;;21.38;5.10;;;9.90;99.90;;;;;;5029126;28;20045;-70
2022/11/26 08:38:36;;;;;;;22.85;5.80;;;9.80;99.90;;;;;;5033160;28;20037;-70
2022/11/26 08:41:04;;;;;;;19.40;4.82;;;9.40;99.90;;;;;;5032599;28;20029;-71
2022/11/26 08:43:30;;;;;;;17.85;5.07;;;10.00;99.90;;;;;;5035376;28;20041;-71
2022/11/26 08:45:58;;;;;;;27.45;6.22;;;9.50;99.90;;;;;;5030447;28;20038;-70
2022/11/26 08:48:26;;;;;;;28.98;6.85;;;9.60;99.90;;;;;;5033964;28;20079;-70
2022/11/26 08:51:07;;;;;;;21.98;6.07;;;10.00;99.90;;;;;;5050088;28;20152;-70
2022/11/26 08:53:34;;;;;;;24.30;5.97;;;10.20;99.90;;;;;;5025381;28;20041;-70
2022/11/26 08:56:00;;;;;;;19.10;4.80;;;9.80;99.90;;;;;;5033546;28;20045;-70
2022/11/26 08:58:26;;;;;;;17.58;5.15;;;9.60;99.90;;;;;;5014225;28;20030;-69
2022/11/26 09:00:51;;;;;;;29.95;5.50;;;9.70;99.90;;;;;;5020443;28;20446;-70
2022/11/26 09:03:17;;;;;;;21.10;5.63;;;9.70;99.90;;;;;;5032929;28;20048;-71
2022/11/26 09:05:42;;;;;;;24.92;5.85;;;10.20;99.90;;;;;;5050183;28;20056;-71
2022/11/26 09:08:08;;;;;;;24.30;6.18;;;10.10;99.90;;;;;;5031095;28;20030;-68
2022/11/26 09:10:33;;;;;;;24.48;5.90;;;10.20;99.90;;;;;;5028821;28;20037;-70
2022/11/26 09:12:59;;;;;;;21.08;5.55;;;9.90;99.90;;;;;;5015341;28;20049;-69
2022/11/26 09:15:24;;;;;;;20.88;5.55;;;10.40;99.90;;;;;;5034412;28;20064;-70
2022/11/26 09:17:50;;;;;;;15.68;4.65;;;10.90;99.90;;;;;;5049875;28;20037;-70
2022/11/26 09:20:15;;;;;;;20.65;6.13;;;10.30;99.90;;;;;;5028547;28;20041;-70
2022/11/26 09:22:41;;;;;;;30.50;6.07;;;10.30;99.90;;;;;;5029571;28;20056;-70
2022/11/26 09:25:07;;;;;;;34.33;6.88;;;10.30;99.90;;;;;;5033139;28;20130;-70
2022/11/26 09:27:32;;;;;;;30.40;6.20;;;10.30;99.90;;;;;;5002454;28;20129;-70
2022/11/26 09:29:58;;;;;;;39.58;7.80;;;10.40;99.90;;;;;;5023919;28;20041;-69
2022/11/26 09:32:23;;;;;;;35.40;7.50;;;10.20;99.90;;;;;;5033591;28;20065;-70
2022/11/26 09:34:50;;;;;;;26.38;6.57;;;10.40;99.90;;;;;;5027880;28;20053;-69
2022/11/26 09:37:15;;;;;;;25.80;6.40;;;9.90;99.90;;;;;;5049410;28;20037;-70
2022/11/26 09:39:41;;;;;;;31.00;6.82;;;10.30;99.90;;;;;;5030866;28;20484;-70
2022/11/26 09:42:20;;;;;;;27.30;6.22;;;10.00;99.90;;;;;;5031721;28;20049;-70
2022/11/26 09:45:03;;;;;;;27.58;6.05;;;10.40;99.90;;;;;;5032265;28;22453;-71
2022/11/26 09:47:41;;;;;;;28.55;6.65;;;10.00;99.90;;;;;;5015873;28;20041;-69
2022/11/26 09:50:19;;;;;;;16.58;5.63;;;10.30;99.90;;;;;;5027453;28;20069;-70
2022/11/26 09:53:21;;;;;;;31.13;7.65;;;10.00;99.90;;;;;;5031424;28;20048;-70
2022/11/26 09:55:52;;;;;;;23.08;6.60;;;10.30;99.90;;;;;;5021231;28;20045;-71
2022/11/26 09:58:28;;;;;;;30.30;7.13;;;10.70;99.90;;;;;;5031769;28;20045;-70
2022/11/26 10:00:57;;;;;;;27.17;6.85;;;10.20;99.90;;;;;;5028778;28;20041;-70
2022/11/26 10:03:34;;;;;;;25.95;6.72;;;10.10;99.90;;;;;;5029107;28;20118;-70
2022/11/26 10:06:08;;;;;;;19.48;5.95;;;10.50;99.90;;;;;;5032579;28;20087;-70
2022/11/26 10:08:59;;;;;;;26.38;6.75;;;10.70;99.90;;;;;;5027848;28;20065;-70
2022/11/26 10:11:43;;;;;;;29.77;7.18;;;10.40;99.90;;;;;;5030659;28;20049;-70
2022/11/26 10:14:30;;;;;;;19.42;5.65;;;10.80;99.90;;;;;;5025520;28;20037;-70
2022/11/26 10:17:24;;;;;;;33.92;7.68;;;10.80;99.90;;;;;;5023736;28;20758;-71
2022/11/26 10:20:07;;;;;;;22.33;7.55;;;10.80;99.90;;;;;;4969164;28;20108;-70
2022/11/26 10:22:58;;;;;;;24.95;6.35;;;10.50;99.90;;;;;;5020623;28;20045;-69
2022/11/26 10:25:29;;;;;;;23.63;6.72;;;10.50;99.90;;;;;;5045890;28;20128;-69
2022/11/26 10:27:57;;;;;;;25.58;7.18;;;10.50;99.90;;;;;;5047457;28;20043;-70
2022/11/26 10:30:28;;;;;;;23.13;7.13;;;10.50;99.90;;;;;;5033343;28;20065;-68
2022/11/26 10:32:55;;;;;;;28.10;8.10;;;11.00;99.90;;;;;;5024370;28;20038;-69
2022/11/26 10:35:23;;;;;;;42.67;9.98;;;10.50;99.90;;;;;;5030125;28;20491;-69
2022/11/26 10:37:49;;;;;;;28.10;8.13;;;10.50;99.90;;;;;;5032291;28;20163;-69
2022/11/26 10:40:18;;;;;;;34.70;9.02;;;10.50;99.90;;;;;;5029573;28;20041;-69
2022/11/26 10:43:09;;;;;;;39.70;10.05;;;11.00;99.90;;;;;;5025082;28;20490;-69
2022/11/26 10:45:47;;;;;;;44.65;11.20;;;11.00;99.90;;;;;;5024584;28;20445;-69
2022/11/26 10:48:25;;;;;;;28.77;8.50;;;10.70;99.90;;;;;;5029373;28;20048;-70
2022/11/26 10:50:56;;;;;;;30.52;8.63;;;11.00;99.90;;;;;;5021957;28;20479;-70
2022/11/26 10:53:23;;;;;;;22.10;7.70;;;11.10;99.90;;;;;;5030636;28;20041;-69
2022/11/26 10:55:51;;;;;;;36.50;8.75;;;10.70;99.90;;;;;;5028879;28;20394;-69
2022/11/26 10:58:45;;;;;;;18.42;7.00;;;11.00;99.90;;;;;;5026938;28;20072;-69
2022/11/26 11:01:14;;;;;;;30.17;8.95;;;10.90;99.90;;;;;;5018668;28;20047;-70
2022/11/26 11:03:49;;;;;;;25.20;8.45;;;10.80;99.90;;;;;;5028689;28;20033;-69
2022/11/26 11:06:18;;;;;;;29.52;9.43;;;11.00;99.90;;;;;;5031919;28;20130;-70
2022/11/26 11:08:46;;;;;;;27.45;8.43;;;11.30;99.90;;;;;;5011978;28;20140;-70
2022/11/26 11:11:26;;;;;;;31.10;9.27;;;11.40;99.90;;;;;;5025749;28;20418;-70
2022/11/26 11:13:53;;;;;;;30.67;9.13;;;11.10;99.90;;;;;;5042531;28;20041;-70
2022/11/26 11:16:26;;;;;;;38.45;10.35;;;11.20;99.90;;;;;;5027625;28;20487;-70
2022/11/26 11:18:57;;;;;;;32.22;9.60;;;11.30;99.90;;;;;;5027106;28;20065;-70
2022/11/26 11:21:32;;;;;;;29.58;8.73;;;11.60;99.90;;;;;;5026727;28;20044;-69
2022/11/26 11:24:28;;;;;;;26.77;8.65;;;11.80;99.90;;;;;;5026636;28;20046;-70
2022/11/26 11:26:59;;;;;;;25.92;10.02;;;11.40;99.90;;;;;;5024508;28;20057;-70
2022/11/26 11:29:38;;;;;;;27.08;8.73;;;11.60;99.90;;;;;;5026823;28;20033;-69
2022/11/26 11:32:25;;;;;;;30.65;8.35;;;11.80;99.90;;;;;;5024852;28;20041;-70
2022/11/26 11:34:51;;;;;;;28.90;9.52;;;11.60;99.90;;;;;;5025580;28;20049;-70
2022/11/26 11:37:22;;;;;;;23.42;7.47;;;11.90;99.90;;;;;;5027181;28;20430;-69
2022/11/26 11:40:14;;;;;;;21.33;7.32;;;12.20;99.90;;;;;;5024979;28;20411;-69
2022/11/26 11:42:40;;;;;;;20.95;8.07;;;11.70;99.90;;;;;;5023691;28;20499;-70
2022/11/26 11:45:21;;;;;;;22.50;8.02;;;11.60;99.90;;;;;;5029313;28;20072;-69
2022/11/26 11:47:55;;;;;;;28.98;8.43;;;11.90;99.90;;;;;;5025712;28;20073;-70
2022/11/26 11:50:39;;;;;;;32.70;9.15;;;11.80;99.90;;;;;;5028136;28;20057;-70
2022/11/26 11:53:26;;;;;;;27.52;8.52;;;11.50;99.90;;;;;;5030188;28;20042;-69
2022/11/26 11:55:57;;;;;;;23.00;7.80;;;11.80;99.90;;;;;;5028469;28;20045;-67
2022/11/26 11:58:40;;;;;;;25.23;9.20;;;11.70;99.90;;;;;;5027968;28;20033;-70
2022/11/26 12:01:42;;;;;;;20.17;7.03;;;11.60;99.90;;;;;;5026779;28;20124;-69
2022/11/26 12:04:37;;;;;;;27.70;9.45;;;11.60;99.90;;;;;;5019943;28;20052;-69
2022/11/26 12:07:24;;;;;;;28.30;8.07;;;11.60;99.90;;;;;;5029551;28;20044;-69
2022/11/26 12:10:04;;;;;;;28.85;10.40;;;11.60;99.90;;;;;;5021553;28;20045;-69
2022/11/26 12:12:43;;;;;;;28.23;9.10;;;11.20;99.90;;;;;;5029707;28;20045;-70
2022/11/26 12:15:11;;;;;;;25.95;8.50;;;11.60;99.90;;;;;;5026294;28;20507;-69
2022/11/26 12:18:00;;;;;;;34.05;10.07;;;11.50;99.90;;;;;;5023120;28;20539;-70
2022/11/26 12:20:47;;;;;;;35.83;10.65;;;11.60;99.90;;;;;;5031789;28;20033;-70
2022/11/26 12:23:18;;;;;;;30.27;9.95;;;11.30;99.90;;;;;;5033083;28;20037;-70
2022/11/26 12:25:48;;;;;;;21.77;8.15;;;11.40;99.90;;;;;;5032435;28;20038;-69
2022/11/26 12:28:24;;;;;;;27.40;10.32;;;11.40;99.90;;;;;;5032747;28;20045;-70
2022/11/26 12:31:10;;;;;;;35.05;10.63;;;11.60;99.90;;;;;;5026017;28;20042;-69
2022/11/26 12:33:44;;;;;;;27.95;10.25;;;11.70;99.90;;;;;;5033922;28;20042;-69
2022/11/26 12:36:18;;;;;;;22.42;9.20;;;11.60;99.90;;;;;;5029111;28;20049;-70
2022/11/26 12:38:51;;;;;;;24.48;9.52;;;11.40;99.90;;;;;;5034936;28;20041;-68
2022/11/26 12:41:38;;;;;;;32.85;10.35;;;11.30;99.90;;;;;;5030413;28;20041;-69
2022/11/26 12:44:23;;;;;;;28.65;9.98;;;11.20;99.90;;;;;;5027267;28;20087;-69
2022/11/26 12:47:05;;;;;;;29.02;9.50;;;11.70;99.90;;;;;;5032320;28;20067;-69
2022/11/26 12:49:55;;;;;;;39.30;10.25;;;11.60;99.90;;;;;;5032470;28;20034;-69
2022/11/26 12:52:56;;;;;;;37.25;10.18;;;11.70;99.90;;;;;;5032434;28;20052;-69
2022/11/26 12:55:29;;;;;;;33.10;10.18;;;11.70;99.90;;;;;;5031846;28;20049;-69
2022/11/26 12:58:00;;;;;;;27.30;9.50;;;11.70;99.90;;;;;;5033091;28;20052;-69
2022/11/26 13:00:35;;;;;;;28.40;9.75;;;11.50;99.90;;;;;;5032062;28;20037;-69